Time;durP1;ratioP1;P1;durP2;ratioP2;P2;SDS_P1;SDS_P2;PMS_P1;PMS_P2;Temp;Humidity;BMP_temperature;BMP_pressure;BME280_temperature;BME280_humidity;BME280_pressure;Samples;Min_cycle;Max_cycle;Signal;HPM_P1;HPM_P2
2022/09/27 00:01:16;;;;;;;7.63;0.80;;;10.40;99.90;;;;;;5076401;28;20048;-67
2022/09/27 00:03:42;;;;;;;7.75;0.50;;;10.50;99.90;;;;;;5075953;28;20036;-65
2022/09/27 00:06:14;;;;;;;9.73;0.40;;;10.50;99.90;;;;;;5076086;28;20260;-65
2022/09/27 00:08:40;;;;;;;8.93;0.55;;;10.40;99.90;;;;;;5075644;28;20044;-66
2022/09/27 00:11:12;;;;;;;11.02;0.52;;;10.20;99.90;;;;;;5076521;28;20177;-65
2022/09/27 00:13:38;;;;;;;13.18;0.43;;;10.60;99.90;;;;;;5075842;28;20166;-66
2022/09/27 00:16:10;;;;;;;6.03;0.35;;;10.20;99.90;;;;;;5076571;28;20131;-66
2022/09/27 00:18:35;;;;;;;13.20;0.80;;;10.20;99.90;;;;;;5059950;28;20047;-67
2022/09/27 00:21:10;;;;;;;12.27;1.10;;;10.50;99.90;;;;;;5062456;28;20662;-66
2022/09/27 00:23:37;;;;;;;12.98;1.20;;;10.20;99.90;;;;;;5062001;28;20040;-65
2022/09/27 00:26:03;;;;;;;7.45;0.70;;;10.40;99.90;;;;;;5062570;28;20051;-65
2022/09/27 00:28:29;;;;;;;6.50;0.50;;;10.10;99.90;;;;;;5078530;28;20051;-65
2022/09/27 00:30:56;;;;;;;6.63;0.68;;;10.30;99.90;;;;;;5062529;28;20048;-65
2022/09/27 00:33:22;;;;;;;11.77;0.60;;;10.20;99.90;;;;;;5079583;28;20036;-64
2022/09/27 00:35:48;;;;;;;8.45;0.65;;;10.10;99.90;;;;;;5063024;28;20056;-65
2022/09/27 00:38:14;;;;;;;8.77;0.85;;;10.30;99.90;;;;;;5079762;28;20055;-65
2022/09/27 00:40:40;;;;;;;11.75;0.50;;;10.30;99.90;;;;;;5081413;28;20040;-65
2022/09/27 00:43:19;;;;;;;7.70;0.50;;;10.20;99.90;;;;;;5079417;28;20036;-64
2022/09/27 00:45:56;;;;;;;6.47;0.32;;;10.00;99.90;;;;;;5079716;28;20040;-65
2022/09/27 00:48:27;;;;;;;7.85;0.30;;;10.20;99.90;;;;;;5079279;28;20431;-66
2022/09/27 00:50:57;;;;;;;9.57;0.35;;;10.20;99.90;;;;;;5079228;28;20044;-65
2022/09/27 00:53:26;;;;;;;5.65;0.30;;;10.00;99.90;;;;;;5062077;28;20032;-64
2022/09/27 00:55:58;;;;;;;5.55;0.52;;;9.90;99.90;;;;;;5079346;28;20055;-65
2022/09/27 00:58:29;;;;;;;5.53;0.57;;;10.10;99.90;;;;;;5079881;28;20054;-65
2022/09/27 01:00:58;;;;;;;7.05;0.30;;;10.20;99.90;;;;;;5079247;28;20409;-66
2022/09/27 01:03:30;;;;;;;11.75;0.57;;;10.00;99.90;;;;;;5061217;28;20129;-66
2022/09/27 01:05:57;;;;;;;7.50;0.40;;;9.90;99.90;;;;;;5079258;28;20109;-66
2022/09/27 01:08:22;;;;;;;5.13;0.30;;;10.10;99.90;;;;;;5078882;28;20071;-65
2022/09/27 01:11:08;;;;;;;5.80;0.40;;;10.00;99.90;;;;;;5062767;28;20291;-65
2022/09/27 01:14:04;;;;;;;9.50;0.50;;;10.00;99.90;;;;;;5079490;28;20226;-65
2022/09/27 01:16:59;;;;;;;9.73;0.40;;;10.20;99.90;;;;;;5027574;28;20055;-65
2022/09/27 01:19:56;;;;;;;4.50;0.30;;;9.80;99.90;;;;;;5062051;28;20048;-64
2022/09/27 01:22:25;;;;;;;8.43;0.40;;;9.80;99.90;;;;;;5078791;28;20097;-64
2022/09/27 01:24:50;;;;;;;5.90;0.30;;;9.80;99.90;;;;;;5078373;28;20035;-64
2022/09/27 01:27:44;;;;;;;5.72;0.40;;;9.80;99.90;;;;;;5061891;28;20086;-65
2022/09/27 01:30:28;;;;;;;6.80;0.40;;;10.00;99.90;;;;;;5078673;28;20461;-65
2022/09/27 01:33:12;;;;;;;;;;;9.70;99.90;;;;;;5079570;28;20051;-65
2022/09/27 01:36:10;;;;;;;7.78;0.38;;;10.10;99.90;;;;;;5078589;28;21579;-65
2022/09/27 01:38:55;;;;;;;8.45;0.30;;;9.70;99.90;;;;;;5074776;28;20827;-65
2022/09/27 01:41:45;;;;;;;6.90;0.30;;;9.80;99.90;;;;;;5078857;28;20383;-65
2022/09/27 01:44:13;;;;;;;4.15;0.40;;;10.00;99.90;;;;;;5079061;28;20071;-64
2022/09/27 01:46:46;;;;;;;5.40;0.30;;;10.00;99.90;;;;;;5077479;28;20273;-65
2022/09/27 01:49:20;;;;;;;7.38;0.40;;;9.80;99.90;;;;;;5078216;28;20043;-64
2022/09/27 01:51:48;;;;;;;;;;;9.70;99.90;;;;;;5079188;28;20373;-64
2022/09/27 01:54:22;;;;;;;5.38;0.30;;;10.00;99.90;;;;;;5077649;28;20250;-64
2022/09/27 01:56:53;;;;;;;8.00;0.60;;;9.90;99.90;;;;;;5077951;28;20043;-64
2022/09/27 01:59:28;;;;;;;6.28;0.40;;;9.60;99.90;;;;;;5077580;28;20131;-64
2022/09/27 02:01:59;;;;;;;5.15;0.45;;;10.00;99.90;;;;;;5076907;28;20459;-64
2022/09/27 02:04:29;;;;;;;7.25;0.52;;;9.90;99.90;;;;;;5078727;28;20050;-64
2022/09/27 02:07:07;;;;;;;9.05;1.05;;;10.00;99.90;;;;;;5078264;28;20603;-64
2022/09/27 02:09:41;;;;;;;7.07;0.57;;;9.70;99.90;;;;;;5077972;28;20051;-63
2022/09/27 02:12:12;;;;;;;4.75;0.30;;;9.50;99.90;;;;;;5078281;28;20044;-66
2022/09/27 02:14:49;;;;;;;4.88;0.30;;;9.50;99.90;;;;;;5078357;28;20036;-64
2022/09/27 02:17:54;;;;;;;7.03;0.38;;;9.70;99.90;;;;;;5078011;28;20312;-64
2022/09/27 02:20:39;;;;;;;7.72;0.30;;;9.70;99.90;;;;;;5077226;28;20525;-64
2022/09/27 02:23:23;;;;;;;12.80;0.75;;;9.50;99.90;;;;;;5077666;28;20040;-65
2022/09/27 02:26:10;;;;;;;9.82;0.60;;;9.50;99.90;;;;;;5077682;28;20043;-64
2022/09/27 02:28:45;;;;;;;6.75;0.32;;;9.50;99.90;;;;;;5078134;28;20043;-64
2022/09/27 02:31:11;;;;;;;8.63;0.40;;;9.50;99.90;;;;;;5077686;28;20229;-64
2022/09/27 02:33:43;;;;;;;6.32;0.68;;;9.80;99.90;;;;;;5078403;28;20040;-64
2022/09/27 02:36:10;;;;;;;6.82;0.30;;;9.80;99.90;;;;;;5077161;28;20436;-64
2022/09/27 02:38:36;;;;;;;7.78;1.02;;;9.90;99.90;;;;;;5061881;28;20341;-66
2022/09/27 02:41:03;;;;;;;9.50;0.40;;;9.60;99.90;;;;;;5067137;28;20055;-65
2022/09/27 02:43:32;;;;;;;6.05;0.30;;;10.00;99.90;;;;;;5070624;28;20032;-66
2022/09/27 02:46:15;;;;;;;7.35;0.40;;;9.70;99.90;;;;;;5086598;28;20055;-64
2022/09/27 02:49:20;;;;;;;8.38;0.52;;;10.00;99.90;;;;;;5086263;28;20452;-64
2022/09/27 02:52:10;;;;;;;5.53;0.32;;;9.90;99.90;;;;;;5069905;28;20044;-64
2022/09/27 02:55:15;;;;;;;14.85;0.52;;;10.00;99.90;;;;;;5085825;28;20039;-64
2022/09/27 02:57:59;;;;;;;;;;;9.60;99.90;;;;;;5085939;28;20047;-66
2022/09/27 03:00:40;;;;;;;;;;;9.50;99.90;;;;;;5086411;28;19924;-67
2022/09/27 03:03:13;;;;;;;5.10;0.40;;;9.80;99.90;;;;;;5085592;28;20019;-67
2022/09/27 03:05:45;;;;;;;;;;;9.80;99.90;;;;;;5086925;28;20043;-66
2022/09/27 03:08:11;;;;;;;3.05;0.40;;;9.60;99.90;;;;;;5085267;28;19935;-66
2022/09/27 03:10:37;;;;;;;4.82;0.20;;;9.90;99.90;;;;;;5086156;28;20042;-67
2022/09/27 03:13:03;;;;;;;8.90;0.43;;;9.60;99.90;;;;;;5085937;28;20035;-65
2022/09/27 03:15:29;;;;;;;5.90;0.30;;;9.60;99.90;;;;;;5086219;28;20039;-66
2022/09/27 03:17:55;;;;;;;7.57;0.30;;;9.60;99.90;;;;;;5068678;28;20118;-64
2022/09/27 03:20:21;;;;;;;4.85;0.40;;;9.90;99.90;;;;;;5086053;28;20119;-65
2022/09/27 03:22:47;;;;;;;6.47;0.32;;;9.60;99.90;;;;;;5085861;28;20143;-66
2022/09/27 03:25:13;;;;;;;8.70;0.80;;;9.50;99.90;;;;;;5085737;28;20086;-65
2022/09/27 03:27:38;;;;;;;3.00;0.40;;;9.50;99.90;;;;;;5085578;28;20031;-65
2022/09/27 03:30:05;;;;;;;5.43;0.30;;;9.60;99.90;;;;;;5068669;28;20040;-66
2022/09/27 03:32:31;;;;;;;4.13;0.20;;;9.40;99.90;;;;;;5085309;28;20047;-67
2022/09/27 03:34:56;;;;;;;6.68;0.40;;;9.80;99.90;;;;;;5085581;28;20052;-64
2022/09/27 03:37:22;;;;;;;5.72;0.28;;;9.40;99.90;;;;;;5074255;28;20055;-65
2022/09/27 03:39:48;;;;;;;3.60;0.30;;;9.80;99.90;;;;;;5086253;28;20066;-65
2022/09/27 03:42:13;;;;;;;5.55;0.30;;;9.80;99.90;;;;;;5085004;28;20058;-64
2022/09/27 03:44:39;;;;;;;7.85;0.35;;;9.50;99.90;;;;;;5084458;28;20493;-68
2022/09/27 03:47:05;;;;;;;7.70;0.25;;;9.40;99.90;;;;;;5084853;28;20444;-64
2022/09/27 03:49:31;;;;;;;5.95;0.30;;;9.90;99.90;;;;;;5068089;28;20046;-66
2022/09/27 03:51:57;;;;;;;6.72;0.30;;;9.80;99.90;;;;;;5084390;28;20071;-65
2022/09/27 03:54:24;;;;;;;7.60;0.30;;;9.90;99.90;;;;;;5067223;28;20051;-65
2022/09/27 03:56:50;;;;;;;5.72;0.45;;;9.90;99.90;;;;;;5067088;28;20040;-65
2022/09/27 03:59:16;;;;;;;8.13;0.52;;;9.40;99.90;;;;;;5067793;28;20044;-67
2022/09/27 04:01:43;;;;;;;7.45;0.60;;;9.80;99.90;;;;;;5084844;28;20089;-65
2022/09/27 04:04:09;;;;;;;10.55;0.40;;;9.40;99.90;;;;;;5068292;28;20032;-65
2022/09/27 04:06:35;;;;;;;11.10;0.50;;;9.40;99.90;;;;;;5085287;28;20044;-67
2022/09/27 04:09:01;;;;;;;15.40;0.50;;;9.90;99.90;;;;;;5066924;28;20040;-65
2022/09/27 04:11:26;;;;;;;5.68;0.40;;;9.70;99.90;;;;;;5084199;28;20470;-65
2022/09/27 04:13:52;;;;;;;9.85;0.45;;;9.70;99.90;;;;;;5082640;28;20165;-65
2022/09/27 04:16:18;;;;;;;12.23;0.80;;;9.80;99.90;;;;;;5065786;28;20047;-65
2022/09/27 04:18:44;;;;;;;5.93;0.30;;;9.40;99.90;;;;;;5066649;28;20051;-67
2022/09/27 04:21:09;;;;;;;3.92;0.22;;;9.40;99.90;;;;;;5082190;28;20044;-66
2022/09/27 04:23:35;;;;;;;6.55;0.38;;;9.50;99.90;;;;;;5065566;28;20082;-63
2022/09/27 04:26:01;;;;;;;7.03;0.40;;;9.40;99.90;;;;;;5068044;28;20428;-62
2022/09/27 04:28:28;;;;;;;7.05;0.40;;;9.40;99.90;;;;;;5066575;28;20609;-63
2022/09/27 04:30:55;;;;;;;5.30;0.45;;;9.90;99.90;;;;;;5083897;28;20105;-66
2022/09/27 04:33:20;;;;;;;7.18;0.43;;;9.30;99.90;;;;;;5083785;28;20097;-65
2022/09/27 04:38:30;;;;;;;3.95;0.68;;;9.70;99.90;;;;;;5084689;28;20052;-63
2022/09/27 04:40:56;;;;;;;7.07;0.50;;;9.50;99.90;;;;;;5067941;28;20398;-64
2022/09/27 04:43:22;;;;;;;9.10;0.40;;;9.80;99.90;;;;;;5066117;28;20051;-64
2022/09/27 04:45:47;;;;;;;11.77;0.60;;;9.50;99.90;;;;;;5084146;28;20131;-64
2022/09/27 04:48:13;;;;;;;7.13;0.70;;;9.40;99.90;;;;;;5084254;28;20036;-64
2022/09/27 04:50:40;;;;;;;3.85;0.40;;;9.80;99.90;;;;;;5085019;28;20036;-63
2022/09/27 04:53:06;;;;;;;5.82;0.35;;;9.60;99.90;;;;;;5085024;28;20100;-63
2022/09/27 04:55:32;;;;;;;11.70;0.50;;;9.70;99.90;;;;;;5067425;28;20071;-65
2022/09/27 04:58:00;;;;;;;8.85;0.50;;;9.20;99.90;;;;;;5084498;28;20079;-63
2022/09/27 05:00:27;;;;;;;7.25;0.70;;;9.30;99.90;;;;;;5067953;28;20020;-63
2022/09/27 05:02:53;;;;;;;6.03;0.60;;;9.60;99.90;;;;;;5084559;28;20121;-64
2022/09/27 05:05:18;;;;;;;6.10;0.45;;;9.30;99.90;;;;;;5084469;28;20125;-66
2022/09/27 05:07:44;;;;;;;5.65;0.30;;;9.20;99.90;;;;;;5070580;28;20039;-64
2022/09/27 05:10:10;;;;;;;9.30;0.40;;;9.50;99.90;;;;;;5087964;28;20115;-64
2022/09/27 05:12:36;;;;;;;5.78;0.40;;;9.60;99.90;;;;;;5071153;28;20071;-64
2022/09/27 05:15:03;;;;;;;8.45;0.60;;;9.50;99.90;;;;;;5070869;28;20032;-64
2022/09/27 05:17:29;;;;;;;8.60;0.63;;;9.20;99.90;;;;;;5087818;28;20140;-64
2022/09/27 05:19:54;;;;;;;7.50;0.30;;;9.50;99.90;;;;;;5087580;28;20126;-64
2022/09/27 05:22:20;;;;;;;4.20;0.25;;;9.50;99.90;;;;;;5070728;28;20094;-63
2022/09/27 05:24:46;;;;;;;7.63;0.40;;;9.10;99.90;;;;;;5088048;28;20074;-64
2022/09/27 05:27:19;;;;;;;7.63;0.40;;;9.50;99.90;;;;;;5070351;28;20032;-64
2022/09/27 05:29:47;;;;;;;7.68;0.55;;;9.50;99.90;;;;;;5071041;28;20040;-64
2022/09/27 05:32:14;;;;;;;6.00;0.30;;;9.10;99.90;;;;;;5088399;28;20036;-63
2022/09/27 05:34:40;;;;;;;4.90;0.50;;;9.60;99.90;;;;;;5071735;28;20109;-63
2022/09/27 05:37:06;;;;;;;5.63;0.30;;;9.20;99.90;;;;;;5071407;28;20105;-64
2022/09/27 05:39:32;;;;;;;6.22;0.22;;;9.20;99.90;;;;;;5088648;28;20036;-64
2022/09/27 05:41:57;;;;;;;8.50;0.40;;;9.60;99.90;;;;;;5088136;28;20440;-63
2022/09/27 05:44:24;;;;;;;6.82;0.50;;;9.20;99.90;;;;;;5088041;28;20381;-65
2022/09/27 05:46:50;;;;;;;4.28;0.30;;;9.30;99.90;;;;;;5071150;28;20040;-65
2022/09/27 05:49:16;;;;;;;5.05;0.57;;;9.30;99.90;;;;;;5087672;28;20042;-64
2022/09/27 05:51:42;;;;;;;6.32;0.30;;;9.40;99.90;;;;;;5088355;28;20043;-63
2022/09/27 05:54:08;;;;;;;3.45;0.45;;;9.30;99.90;;;;;;5088268;28;20150;-64
2022/09/27 05:56:33;;;;;;;3.00;0.20;;;9.20;99.90;;;;;;5071614;28;20748;-64
2022/09/27 05:58:59;;;;;;;4.75;0.32;;;9.50;99.90;;;;;;5070943;28;20047;-64
2022/09/27 06:01:26;;;;;;;5.13;0.28;;;9.70;99.90;;;;;;5088058;28;20044;-64
2022/09/27 06:03:52;;;;;;;5.18;0.30;;;9.50;99.90;;;;;;5088078;28;20086;-64
2022/09/27 06:06:18;;;;;;;6.15;0.30;;;9.40;99.90;;;;;;5071309;28;20043;-64
2022/09/27 06:08:44;;;;;;;4.55;0.63;;;9.20;99.90;;;;;;5070807;28;20132;-65
2022/09/27 06:11:12;;;;;;;4.55;0.30;;;9.60;99.90;;;;;;5087949;28;20047;-66
2022/09/27 06:13:38;;;;;;;8.90;0.40;;;9.60;99.90;;;;;;5087445;28;20074;-63
2022/09/27 06:16:05;;;;;;;6.82;0.73;;;9.30;99.90;;;;;;5070873;28;20039;-66
2022/09/27 06:18:31;;;;;;;6.60;0.30;;;9.30;99.90;;;;;;5086724;28;20043;-64
2022/09/27 06:21:01;;;;;;;4.57;0.30;;;9.60;99.90;;;;;;5087380;28;20044;-64
2022/09/27 06:23:27;;;;;;;5.60;0.32;;;9.70;99.90;;;;;;5087109;28;20044;-64
2022/09/27 06:25:53;;;;;;;5.50;0.30;;;9.60;99.90;;;;;;5086964;28;20097;-64
2022/09/27 06:28:20;;;;;;;10.93;0.50;;;9.40;99.90;;;;;;5086861;28;20423;-64
2022/09/27 06:30:48;;;;;;;6.38;0.20;;;9.30;99.90;;;;;;5053362;28;20036;-64
2022/09/27 06:33:16;;;;;;;8.30;0.70;;;9.50;99.90;;;;;;5086826;28;20036;-64
2022/09/27 06:35:44;;;;;;;9.18;0.60;;;9.70;99.90;;;;;;5086912;28;20555;-64
2022/09/27 06:38:12;;;;;;;5.32;0.50;;;9.50;99.90;;;;;;5087494;28;20414;-64
2022/09/27 06:40:38;;;;;;;5.95;0.40;;;9.80;99.90;;;;;;5087227;28;20507;-64
2022/09/27 06:43:07;;;;;;;5.97;0.30;;;9.50;99.90;;;;;;5070774;28;20623;-64
2022/09/27 06:45:34;;;;;;;4.40;0.30;;;9.40;99.90;;;;;;5088642;28;20039;-64
2022/09/27 06:48:01;;;;;;;6.40;0.43;;;9.50;99.90;;;;;;5070631;28;20048;-63
2022/09/27 06:50:28;;;;;;;6.97;0.28;;;9.60;99.90;;;;;;5071167;28;20044;-63
2022/09/27 06:52:54;;;;;;;5.97;0.50;;;9.50;99.90;;;;;;5087662;28;20055;-64
2022/09/27 06:55:20;;;;;;;7.45;0.40;;;9.50;99.90;;;;;;5071555;28;20490;-63
2022/09/27 07:00:30;;;;;;;7.53;0.90;;;9.90;99.90;;;;;;5072899;28;20105;-65
2022/09/27 07:03:00;;;;;;;11.63;0.50;;;9.60;99.90;;;;;;5087191;28;20047;-64
2022/09/27 07:05:30;;;;;;;5.88;0.40;;;9.80;99.90;;;;;;5070670;28;20044;-64
2022/09/27 07:07:56;;;;;;;6.63;0.40;;;9.50;99.90;;;;;;5088030;28;20044;-64
2022/09/27 07:10:27;;;;;;;7.38;0.40;;;9.70;99.90;;;;;;5085414;28;20082;-65
2022/09/27 07:12:53;;;;;;;8.80;0.55;;;9.40;99.90;;;;;;5086465;28;20040;-64
2022/09/27 07:15:22;;;;;;;7.43;0.40;;;9.40;99.90;;;;;;5087388;28;20366;-64
2022/09/27 07:17:56;;;;;;;8.18;0.30;;;9.40;99.90;;;;;;5068433;28;20047;-68
2022/09/27 07:20:23;;;;;;;5.43;0.20;;;9.90;99.90;;;;;;5086418;28;20040;-65
2022/09/27 07:22:48;;;;;;;4.43;0.28;;;9.90;99.90;;;;;;5069516;28;20040;-65
2022/09/27 07:25:14;;;;;;;5.13;0.20;;;9.70;99.90;;;;;;5085467;28;20465;-68
2022/09/27 07:27:40;;;;;;;5.63;0.30;;;9.70;99.90;;;;;;5068817;28;20028;-65
2022/09/27 07:30:07;;;;;;;2.50;0.20;;;9.80;99.90;;;;;;5069250;28;20129;-68
2022/09/27 07:32:35;;;;;;;2.13;0.40;;;9.30;99.90;;;;;;5086600;28;20397;-65
2022/09/27 07:35:02;;;;;;;2.95;0.30;;;9.30;99.90;;;;;;5086472;28;20131;-66
2022/09/27 07:37:34;;;;;;;1.40;0.10;;;9.60;99.90;;;;;;5073440;28;20595;-66
2022/09/27 07:40:00;;;;;;;2.20;0.17;;;9.50;99.90;;;;;;5086467;28;20100;-65
2022/09/27 07:42:27;;;;;;;3.72;0.20;;;9.20;99.90;;;;;;5085473;28;20043;-66
2022/09/27 07:44:57;;;;;;;5.25;0.30;;;9.60;99.90;;;;;;5068950;28;20069;-65
2022/09/27 07:47:23;;;;;;;3.40;0.43;;;9.50;99.90;;;;;;5086639;28;20062;-65
2022/09/27 07:49:52;;;;;;;4.00;0.20;;;9.50;99.90;;;;;;5069608;28;20376;-66
2022/09/27 07:52:18;;;;;;;6.07;0.43;;;9.10;99.90;;;;;;5086065;28;20136;-65
2022/09/27 07:54:45;;;;;;;3.58;0.28;;;9.20;99.90;;;;;;5085596;28;20574;-64
2022/09/27 07:57:11;;;;;;;4.00;0.20;;;9.20;99.90;;;;;;5085819;28;20039;-65
2022/09/27 07:59:36;;;;;;;1.92;0.30;;;9.30;99.90;;;;;;5086763;28;20043;-66
2022/09/27 08:02:02;;;;;;;2.22;0.20;;;9.70;99.90;;;;;;5069615;28;20132;-66
2022/09/27 08:04:28;;;;;;;5.65;0.30;;;9.80;99.90;;;;;;5085329;28;20513;-64
2022/09/27 08:06:54;;;;;;;3.53;0.40;;;9.80;99.90;;;;;;5085783;28;20040;-66
2022/09/27 08:09:20;;;;;;;3.10;0.30;;;9.50;99.90;;;;;;5070237;28;20501;-65
2022/09/27 08:11:46;;;;;;;3.95;0.20;;;10.00;99.90;;;;;;5070519;28;20044;-65
2022/09/27 08:14:13;;;;;;;4.28;0.20;;;9.60;99.90;;;;;;5069581;28;20087;-66
2022/09/27 08:16:40;;;;;;;3.78;0.40;;;9.70;99.90;;;;;;5086743;28;20059;-66
2022/09/27 08:19:06;;;;;;;8.57;0.30;;;10.10;99.90;;;;;;5087405;28;20107;-65
2022/09/27 08:21:32;;;;;;;8.90;0.40;;;9.80;99.90;;;;;;5086563;28;20072;-67
2022/09/27 08:23:58;;;;;;;6.28;0.30;;;10.20;99.90;;;;;;5086308;28;20442;-64
2022/09/27 08:26:26;;;;;;;4.07;0.38;;;10.40;99.90;;;;;;5086865;28;20174;-68
2022/09/27 08:28:51;;;;;;;2.92;0.40;;;10.50;99.90;;;;;;5086856;28;20040;-65
2022/09/27 08:31:17;;;;;;;5.05;0.35;;;10.30;99.90;;;;;;5086428;28;20413;-67
2022/09/27 08:33:43;;;;;;;8.45;0.50;;;10.80;99.90;;;;;;5086292;28;20047;-64
2022/09/27 08:36:12;;;;;;;6.45;0.35;;;10.70;99.90;;;;;;5086827;28;20056;-68
2022/09/27 08:38:38;;;;;;;6.40;0.50;;;10.80;99.90;;;;;;5068935;28;20483;-67
2022/09/27 08:41:38;;;;;;;5.30;0.30;;;11.30;99.90;;;;;;5087646;28;20044;-65
2022/09/27 08:44:29;;;;;;;3.05;0.50;;;11.90;99.90;;;;;;5090301;28;20475;-65
2022/09/27 08:47:07;;;;;;;3.75;0.32;;;12.80;99.90;;;;;;5090617;28;20131;-64
2022/09/27 08:49:45;;;;;;;2.00;0.22;;;13.50;99.90;;;;;;5089963;28;20105;-64
2022/09/27 08:52:26;;;;;;;5.95;0.40;;;13.50;99.90;;;;;;5090069;28;20500;-64
2022/09/27 08:54:54;;;;;;;5.72;0.20;;;13.20;99.90;;;;;;5090805;28;20229;-64
2022/09/27 08:57:23;;;;;;;6.57;0.40;;;13.10;99.90;;;;;;5089933;28;20057;-64
2022/09/27 09:00:06;;;;;;;2.90;0.40;;;13.60;99.90;;;;;;5074417;28;20028;-64
2022/09/27 09:03:17;;;;;;;3.10;0.30;;;13.90;99.90;;;;;;5073850;28;20532;-69
2022/09/27 09:06:01;;;;;;;3.33;0.20;;;13.60;99.90;;;;;;5072812;28;20040;-65
2022/09/27 09:08:56;;;;;;;3.20;0.20;;;13.70;99.90;;;;;;5073939;28;20052;-65
2022/09/27 09:15:15;;;;;;;2.72;0.20;;;13.80;99.90;;;;;;5090189;28;20055;-64
2022/09/27 09:18:18;;;;;;;1.73;0.13;;;13.40;99.90;;;;;;5061178;28;20054;-64
2022/09/27 09:20:52;;;;;;;2.53;0.30;;;13.30;99.90;;;;;;5073292;28;20040;-65
2022/09/27 09:23:37;;;;;;;4.50;0.20;;;13.10;99.90;;;;;;5090375;28;20285;-67
2022/09/27 09:26:21;;;;;;;3.45;0.28;;;13.20;99.90;;;;;;5057565;28;20055;-66
2022/09/27 09:29:05;;;;;;;5.43;0.30;;;14.00;99.90;;;;;;5090599;28;20044;-64
2022/09/27 09:31:50;;;;;;;4.57;0.10;;;14.40;99.90;;;;;;5089951;28;20123;-64
2022/09/27 09:34:31;;;;;;;3.30;0.10;;;14.30;99.90;;;;;;5089597;28;20115;-65
2022/09/27 09:37:20;;;;;;;3.33;0.20;;;14.40;99.90;;;;;;5055758;28;20108;-64
2022/09/27 09:39:58;;;;;;;2.95;0.20;;;14.30;99.90;;;;;;5056907;28;20044;-66
2022/09/27 09:42:43;;;;;;;6.53;0.15;;;14.00;99.90;;;;;;5089831;28;20090;-64
2022/09/27 09:45:35;;;;;;;5.47;0.20;;;14.00;99.90;;;;;;5089687;28;20544;-62
2022/09/27 09:48:03;;;;;;;5.68;0.43;;;13.20;99.90;;;;;;5089698;28;20040;-65
2022/09/27 09:50:38;;;;;;;5.43;0.20;;;13.50;99.90;;;;;;5056036;28;20421;-62
2022/09/27 09:53:27;;;;;;;5.95;0.20;;;13.30;99.90;;;;;;5055550;28;20048;-65
2022/09/27 09:56:01;;;;;;;6.68;0.40;;;13.30;99.90;;;;;;5071991;28;20044;-65
2022/09/27 09:58:45;;;;;;;10.18;1.17;;;13.00;99.90;;;;;;5088796;28;20128;-64
2022/09/27 10:01:13;;;;;;;;;;;12.90;99.90;;;;;;5088912;28;20079;-63
2022/09/27 10:03:39;;;;;;;4.28;0.20;;;12.50;99.90;;;;;;5089459;28;20365;-63
2022/09/27 10:06:07;;;;;;;3.17;0.20;;;12.60;99.90;;;;;;5071970;28;20040;-65
2022/09/27 10:08:33;;;;;;;3.60;0.20;;;12.60;99.90;;;;;;5088616;28;20040;-64
2022/09/27 10:10:59;;;;;;;5.20;0.32;;;12.80;99.90;;;;;;5089100;28;20032;-63
2022/09/27 10:13:25;;;;;;;2.92;0.20;;;12.60;99.90;;;;;;5055623;28;20439;-67
2022/09/27 10:16:04;;;;;;;3.13;0.20;;;12.70;99.90;;;;;;5090089;28;20486;-63
2022/09/27 10:18:31;;;;;;;1.48;0.17;;;13.20;99.90;;;;;;5088091;28;20139;-64
2022/09/27 10:21:00;;;;;;;2.40;0.10;;;13.00;99.90;;;;;;5070412;28;20052;-64
2022/09/27 10:23:27;;;;;;;5.05;0.30;;;13.20;99.90;;;;;;5084195;28;20104;-65
2022/09/27 10:26:02;;;;;;;4.30;0.32;;;12.70;99.90;;;;;;5085737;28;20044;-64
2022/09/27 10:28:41;;;;;;;3.75;0.20;;;12.10;99.90;;;;;;5085414;28;20048;-64
2022/09/27 10:31:19;;;;;;;3.88;0.10;;;11.60;99.90;;;;;;5068314;28;20083;-64
2022/09/27 10:33:58;;;;;;;3.72;0.20;;;11.20;99.90;;;;;;5069494;28;20426;-65
2022/09/27 10:36:35;;;;;;;3.45;0.20;;;11.20;99.90;;;;;;5086540;28;20475;-64
2022/09/27 10:39:03;;;;;;;3.55;0.20;;;11.30;99.90;;;;;;5070081;28;20044;-65
2022/09/27 10:41:40;;;;;;;2.75;0.20;;;11.10;99.90;;;;;;5087023;28;20044;-64
2022/09/27 10:44:15;;;;;;;3.30;0.20;;;11.30;99.90;;;;;;5086995;28;20043;-64
2022/09/27 10:46:46;;;;;;;3.03;0.30;;;11.20;99.90;;;;;;5087602;28;20501;-65
2022/09/27 10:49:37;;;;;;;2.67;0.25;;;11.40;99.90;;;;;;5087007;28;20436;-65
2022/09/27 10:52:07;;;;;;;1.15;0.00;;;11.30;99.90;;;;;;5069860;28;20126;-64
2022/09/27 10:54:36;;;;;;;2.33;0.10;;;10.70;99.90;;;;;;5070534;28;20043;-64
2022/09/27 10:57:18;;;;;;;2.15;0.10;;;10.90;99.90;;;;;;5070729;28;20048;-63
2022/09/27 10:59:55;;;;;;;2.07;0.20;;;10.50;99.90;;;;;;5086739;28;20418;-66
2022/09/27 11:02:28;;;;;;;1.52;0.20;;;10.50;99.90;;;;;;5079957;28;20044;-66
2022/09/27 11:05:14;;;;;;;0.82;0.10;;;10.70;99.90;;;;;;5062755;28;20059;-66
2022/09/27 11:07:51;;;;;;;2.20;0.10;;;10.40;99.90;;;;;;5080825;28;20031;-66
2022/09/27 11:10:30;;;;;;;1.20;0.05;;;10.60;99.90;;;;;;5080169;28;20055;-66
2022/09/27 11:13:17;;;;;;;0.88;0.10;;;10.70;99.90;;;;;;5080041;28;20126;-66
2022/09/27 11:16:19;;;;;;;0.85;0.10;;;11.00;99.90;;;;;;5080162;28;20044;-65
2022/09/27 11:19:18;;;;;;;1.67;0.20;;;11.20;99.90;;;;;;5079857;28;20503;-66
2022/09/27 11:22:08;;;;;;;3.20;0.20;;;11.30;99.90;;;;;;5046274;28;20115;-67
2022/09/27 11:25:12;;;;;;;1.35;0.10;;;11.30;99.90;;;;;;5079003;28;20054;-66
2022/09/27 11:27:58;;;;;;;4.22;0.30;;;11.20;99.90;;;;;;5078601;28;20203;-66
2022/09/27 11:30:28;;;;;;;1.95;0.10;;;11.10;99.90;;;;;;5078142;28;20558;-67
2022/09/27 11:33:22;;;;;;;3.50;0.20;;;11.10;99.90;;;;;;5079466;28;20390;-66
2022/09/27 11:35:47;;;;;;;;;;;11.10;99.90;;;;;;5079556;28;20067;-66
2022/09/27 11:38:23;;;;;;;0.93;0.10;;;11.20;99.90;;;;;;5078530;28;19920;-67
2022/09/27 11:41:10;;;;;;;1.42;0.10;;;11.50;99.90;;;;;;5061955;28;20590;-66
2022/09/27 11:43:54;;;;;;;3.97;0.40;;;11.60;99.90;;;;;;5062426;28;20070;-67
2022/09/27 11:46:31;;;;;;;4.00;0.20;;;12.70;99.90;;;;;;5078959;28;20044;-67
2022/09/27 11:49:25;;;;;;;4.15;0.30;;;12.60;99.90;;;;;;5062229;28;20062;-67
2022/09/27 11:52:12;;;;;;;3.90;0.20;;;12.60;99.90;;;;;;5061925;28;20051;-67
2022/09/27 11:54:41;;;;;;;4.90;0.20;;;12.70;99.90;;;;;;5078929;28;20409;-67
2022/09/27 11:57:30;;;;;;;2.35;0.20;;;12.40;99.90;;;;;;5078328;28;20063;-67
2022/09/27 12:00:17;;;;;;;3.78;0.28;;;12.80;99.90;;;;;;5078719;28;20069;-67
2022/09/27 12:02:52;;;;;;;2.38;0.10;;;12.30;99.90;;;;;;5079052;28;20044;-67
2022/09/27 12:05:40;;;;;;;0.85;0.10;;;12.30;99.90;;;;;;5062345;28;20126;-67
2022/09/27 12:08:12;;;;;;;1.55;0.10;;;12.50;99.90;;;;;;5078893;28;20036;-68
2022/09/27 12:10:42;;;;;;;1.10;0.10;;;12.30;99.90;;;;;;5079015;28;20201;-67
2022/09/27 12:13:13;;;;;;;2.15;0.17;;;11.50;99.90;;;;;;5079026;28;20086;-67
2022/09/27 12:15:43;;;;;;;1.25;0.10;;;11.70;99.90;;;;;;5080867;28;20074;-67
2022/09/27 12:18:23;;;;;;;0.68;0.10;;;11.80;99.90;;;;;;5066613;28;20076;-67
2022/09/27 12:20:50;;;;;;;0.22;0.00;;;11.80;99.90;;;;;;5066250;28;20147;-67
2022/09/27 12:23:22;;;;;;;0.93;0.00;;;11.70;99.90;;;;;;5082367;28;20114;-68
2022/09/27 12:25:53;;;;;;;1.85;0.00;;;11.00;99.90;;;;;;5083126;28;20126;-67
2022/09/27 12:29:11;;;;;;;0.63;0.00;;;11.30;99.90;;;;;;5066529;28;20291;-68
2022/09/27 12:31:45;;;;;;;1.05;0.00;;;11.30;99.90;;;;;;5057413;28;20055;-67
2022/09/27 12:34:32;;;;;;;0.50;0.00;;;11.80;99.90;;;;;;5082968;28;20740;-68
2022/09/27 12:37:15;;;;;;;1.65;0.10;;;12.10;99.90;;;;;;5082610;28;20079;-66
2022/09/27 12:40:22;;;;;;;4.40;0.30;;;12.00;99.90;;;;;;5083101;28;20124;-67
2022/09/27 12:43:08;;;;;;;2.15;0.10;;;11.90;99.90;;;;;;5076916;28;20578;-67
2022/09/27 12:45:48;;;;;;;1.90;0.10;;;12.10;99.90;;;;;;5082177;28;20128;-66
2022/09/27 12:48:38;;;;;;;2.70;0.13;;;11.50;99.90;;;;;;5065395;28;20036;-67
2022/09/27 12:51:11;;;;;;;2.53;0.10;;;12.00;99.90;;;;;;5065504;28;20141;-67
2022/09/27 12:53:51;;;;;;;1.75;0.10;;;11.90;99.90;;;;;;5082084;28;20080;-69
2022/09/27 12:56:41;;;;;;;1.50;0.10;;;12.20;99.90;;;;;;5065429;28;20055;-68
2022/09/27 12:59:10;;;;;;;3.72;0.30;;;12.50;99.90;;;;;;5082719;28;20050;-68
2022/09/27 13:01:44;;;;;;;3.08;0.30;;;12.60;99.90;;;;;;5065318;28;20075;-68
2022/09/27 13:04:28;;;;;;;1.92;0.10;;;12.60;99.90;;;;;;5065437;28;20036;-68
2022/09/27 13:07:04;;;;;;;3.17;0.10;;;13.40;99.90;;;;;;5065526;28;20044;-67
2022/09/27 13:09:58;;;;;;;5.03;0.45;;;14.30;99.90;;;;;;5081954;28;20050;-68
2022/09/27 13:12:26;;;;;;;2.08;0.10;;;15.70;99.90;;;;;;5082164;28;20055;-68
2022/09/27 13:15:01;;;;;;;2.95;0.13;;;16.80;99.90;;;;;;5081669;28;20047;-65
2022/09/27 13:17:43;;;;;;;2.88;0.10;;;16.30;99.90;;;;;;5082046;28;20048;-66
2022/09/27 13:20:31;;;;;;;1.60;0.00;;;16.90;99.90;;;;;;5082013;28;20084;-65
2022/09/27 13:22:58;;;;;;;1.40;0.00;;;17.10;99.90;;;;;;5081809;28;20048;-66
2022/09/27 13:25:51;;;;;;;1.15;0.00;;;16.90;99.90;;;;;;5068697;28;20482;-64
2022/09/27 13:28:32;;;;;;;1.67;0.10;;;15.70;99.90;;;;;;5063786;28;20044;-65
2022/09/27 13:31:09;;;;;;;1.55;0.10;;;14.60;99.90;;;;;;5081776;28;20291;-66
2022/09/27 13:33:50;;;;;;;2.13;0.10;;;14.70;99.90;;;;;;5081746;28;20119;-65